Time;durP1;ratioP1;P1;durP2;ratioP2;P2;SDS_P1;SDS_P2;PMS_P1;PMS_P2;Temp;Humidity;BMP_temperature;BMP_pressure;BME280_temperature;BME280_humidity;BME280_pressure;Samples;Min_cycle;Max_cycle;Signal;HPM_P1;HPM_P2
2022/11/08 04:03:02;;;;;;;;;;;10.40;99.90;;;;;;5014163;23;20410;-68
2022/11/08 04:05:28;;;;;;;;;;;10.40;99.90;;;;;;4984170;28;19930;-68
2022/11/08 04:07:55;;;;;;;;;;;10.40;99.90;;;;;;4990486;28;19933;-68
2022/11/08 04:10:22;;;;;;;;;;;10.40;99.90;;;;;;5006661;28;20404;-68
2022/11/08 04:15:33;;;;;;;;;;;10.40;99.90;;;;;;4971883;28;19922;-68
2022/11/08 04:23:43;;;;;;;;;;;10.40;99.90;;;;;;4973656;28;19922;-68
2022/11/08 04:26:10;;;;;;;;;;;10.40;99.90;;;;;;4968865;28;19933;-68
2022/11/08 04:28:38;;;;;;;;;;;10.30;99.90;;;;;;4974185;28;20377;-67
2022/11/08 04:31:06;;;;;;;;;;;10.40;99.90;;;;;;4967660;28;19933;-67
2022/11/08 04:33:34;;;;;;;;;;;10.40;99.90;;;;;;4978050;28;20011;-67
2022/11/08 04:36:01;;;;;;;;;;;10.40;99.90;;;;;;4968936;28;20348;-67
2022/11/08 04:38:28;;;;;;;;;;;10.50;99.90;;;;;;4983767;28;19931;-64
2022/11/08 04:40:58;;;;;;;;;;;10.50;99.90;;;;;;4971449;28;19935;-65
2022/11/08 04:43:25;;;;;;;;;;;10.50;99.90;;;;;;4983077;28;19933;-64
2022/11/08 04:45:51;;;;;;;;;;;10.50;99.90;;;;;;4976902;28;20349;-68
2022/11/08 04:48:18;;;;;;;;;;;10.50;99.90;;;;;;4979591;28;19993;-67
2022/11/08 04:50:46;;;;;;;;;;;10.40;99.90;;;;;;4967947;28;19957;-68
2022/11/08 04:53:13;;;;;;;;;;;10.40;99.90;;;;;;4977880;28;19938;-67
2022/11/08 04:55:40;;;;;;;;;;;10.40;99.90;;;;;;4957620;28;19935;-68
2022/11/08 04:58:06;;;;;;;;;;;10.40;99.90;;;;;;4964590;28;20353;-68
2022/11/08 05:00:33;;;;;;;;;;;10.30;99.90;;;;;;4981078;28;20381;-68
2022/11/08 05:03:01;;;;;;;;;;;10.30;99.90;;;;;;4974345;28;19980;-68
2022/11/08 05:05:28;;;;;;;;;;;10.30;99.90;;;;;;4983335;28;19949;-68
2022/11/08 05:07:56;;;;;;;;;;;10.30;99.90;;;;;;4974882;28;19934;-65
2022/11/08 05:10:23;;;;;;;;;;;10.30;99.90;;;;;;4984009;28;19926;-68
2022/11/08 05:12:50;;;;;;;;;;;10.20;99.90;;;;;;4971257;28;19955;-68
2022/11/08 05:15:17;;;;;;;;;;;10.20;99.90;;;;;;4966428;28;19992;-68
2022/11/08 05:17:43;;;;;;;;;;;10.20;99.90;;;;;;4979147;28;20360;-67
2022/11/08 05:25:42;;;;;;;;;;;10.10;99.90;;;;;;4955025;28;19930;-68
2022/11/08 05:28:09;;;;;;;;;;;10.10;99.90;;;;;;4966344;28;19930;-68
2022/11/08 05:30:36;;;;;;;;;;;10.10;99.90;;;;;;4976928;28;19926;-67
2022/11/08 05:33:03;;;;;;;;;;;10.10;99.90;;;;;;4981242;28;20332;-67
2022/11/08 05:35:29;;;;;;;;;;;10.10;99.90;;;;;;4972854;28;20416;-67
2022/11/08 05:37:56;;;;;;;;;;;10.10;99.90;;;;;;4973424;28;19926;-67
2022/11/08 05:40:24;;;;;;;;;;;10.10;99.90;;;;;;4978363;28;19927;-67
2022/11/08 05:42:53;;;;;;;;;;;10.10;99.90;;;;;;4973459;28;19926;-68
2022/11/08 05:45:20;;;;;;;;;;;10.10;99.90;;;;;;4955610;28;19926;-67
2022/11/08 05:47:47;;;;;;;;;;;10.10;99.90;;;;;;4965176;28;19926;-68
2022/11/08 05:50:14;;;;;;;;;;;10.10;99.90;;;;;;4984944;28;19933;-68
2022/11/08 05:52:40;;;;;;;;;;;10.20;99.90;;;;;;4976927;28;19931;-67
2022/11/08 05:55:07;;;;;;;;;;;10.20;99.90;;;;;;4962377;28;19933;-68
2022/11/08 05:57:36;;;;;;;;;;;10.20;99.90;;;;;;4980938;28;19965;-68
2022/11/08 06:00:04;;;;;;;;;;;10.30;99.90;;;;;;4962809;28;19930;-68
2022/11/08 06:02:38;;;;;;;;;;;10.30;99.90;;;;;;4966980;28;20382;-69
2022/11/08 06:05:05;;;;;;;;;;;10.20;99.90;;;;;;4980877;28;20403;-68
2022/11/08 06:07:32;;;;;;;;;;;10.20;99.90;;;;;;4969650;28;20367;-68
2022/11/08 06:09:59;;;;;;;;;;;10.10;99.90;;;;;;4972194;28;19989;-69
2022/11/08 06:12:25;;;;;;;;;;;10.00;99.90;;;;;;4981370;28;20332;-68
2022/11/08 06:14:54;;;;;;;;;;;10.00;99.90;;;;;;4974524;28;19926;-66
2022/11/08 06:17:20;;;;;;;;;;;9.90;99.90;;;;;;4986325;28;19930;-64
2022/11/08 06:19:47;;;;;;;;;;;9.90;99.90;;;;;;4982381;28;19933;-74
2022/11/08 06:22:14;;;;;;;;;;;9.80;99.90;;;;;;4989633;28;19926;-67
2022/11/08 06:24:41;;;;;;;;;;;9.80;99.90;;;;;;4981361;28;20001;-67
2022/11/08 06:27:07;;;;;;;;;;;9.80;99.90;;;;;;4973174;28;19934;-67
2022/11/08 06:29:34;;;;;;;;;;;9.70;99.90;;;;;;4965661;28;20297;-67
2022/11/08 06:32:02;;;;;;;;;;;9.70;99.90;;;;;;4980468;28;19930;-67
2022/11/08 06:34:29;;;;;;;;;;;9.70;99.90;;;;;;4963780;28;20282;-65
2022/11/08 06:36:58;;;;;;;;;;;9.70;99.90;;;;;;4965847;28;19999;-67
2022/11/08 06:39:24;;;;;;;;;;;9.60;99.90;;;;;;4985838;28;19926;-67
2022/11/08 06:41:51;;;;;;;;;;;9.60;99.90;;;;;;4964509;28;19933;-75
2022/11/08 06:44:18;;;;;;;;;;;9.60;99.90;;;;;;4988849;28;19933;-66
2022/11/08 06:46:45;;;;;;;;;;;9.60;99.90;;;;;;4970305;28;19926;-65
2022/11/08 06:49:13;;;;;;;;;;;9.60;99.90;;;;;;4969060;28;19938;-67
2022/11/08 06:51:40;;;;;;;;;;;9.60;99.90;;;;;;4967904;28;19985;-67
2022/11/08 06:54:07;;;;;;;;;;;9.60;99.90;;;;;;4987141;28;19933;-68
2022/11/08 06:56:33;;;;;;;;;;;9.60;99.90;;;;;;4966131;28;19954;-67
2022/11/08 06:59:00;;;;;;;;;;;9.60;99.90;;;;;;4979934;28;19937;-67
2022/11/08 07:01:27;;;;;;;;;;;9.60;99.90;;;;;;4974695;28;19926;-67
2022/11/08 07:03:54;;;;;;;;;;;9.60;99.90;;;;;;4973113;28;19951;-68
2022/11/08 07:06:22;;;;;;;;;;;9.60;99.90;;;;;;4980055;28;19927;-65
2022/11/08 07:08:49;;;;;;;;;;;9.60;99.90;;;;;;4968113;28;19934;-68
2022/11/08 07:11:16;;;;;;;;;;;9.60;99.90;;;;;;4981109;28;19933;-67
2022/11/08 07:13:43;;;;;;;;;;;9.70;99.90;;;;;;4969172;28;19926;-67
2022/11/08 07:16:10;;;;;;;;;;;9.70;99.90;;;;;;4977964;28;19936;-67
2022/11/08 07:18:36;;;;;;;;;;;9.80;99.90;;;;;;4969755;28;20377;-68
2022/11/08 07:21:03;;;;;;;;;;;9.80;99.90;;;;;;4966878;28;19948;-68
2022/11/08 07:23:31;;;;;;;;;;;9.90;99.90;;;;;;4958923;28;19930;-67
2022/11/08 07:26:00;;;;;;;;;;;9.90;99.90;;;;;;4966648;28;19926;-66
2022/11/08 07:28:27;;;;;;;;;;;10.00;99.90;;;;;;4960950;28;20362;-65
2022/11/08 07:30:57;;;;;;;;;;;10.00;99.90;;;;;;4979016;28;19927;-65
2022/11/08 07:33:23;;;;;;;;;;;10.10;99.90;;;;;;4969885;28;19926;-65
2022/11/08 07:35:50;;;;;;;;;;;10.10;99.90;;;;;;4969100;28;19935;-65
2022/11/08 07:38:17;;;;;;;;;;;10.20;99.90;;;;;;4981268;28;20305;-65
2022/11/08 07:40:45;;;;;;;;;;;10.20;99.90;;;;;;4969432;28;19988;-64
2022/11/08 07:43:12;;;;;;;;;;;10.30;99.90;;;;;;4982723;28;19926;-66
2022/11/08 07:45:39;;;;;;;;;;;10.40;99.90;;;;;;4978027;28;19926;-65
2022/11/08 07:48:08;;;;;;;;;;;10.40;99.90;;;;;;4964985;28;19926;-65
2022/11/08 07:50:34;;;;;;;;;;;10.50;99.90;;;;;;4953229;28;19927;-66
2022/11/08 07:53:01;;;;;;;;;;;10.60;99.90;;;;;;4974438;28;20498;-66
2022/11/08 07:55:28;;;;;;;;;;;10.70;99.90;;;;;;4969415;28;19933;-66
2022/11/08 07:58:01;;;;;;;;;;;10.80;99.90;;;;;;4961749;28;19938;-66
2022/11/08 08:00:27;;;;;;;;;;;10.80;99.90;;;;;;4964301;28;20368;-65
2022/11/08 08:02:57;;;;;;;;;;;10.90;99.90;;;;;;4964275;28;19969;-65
2022/11/08 08:05:24;;;;;;;;;;;11.00;99.90;;;;;;4964127;28;19926;-65
2022/11/08 08:07:50;;;;;;;;;;;11.10;99.90;;;;;;4972817;28;20029;-64
2022/11/08 08:10:17;;;;;;;;;;;11.10;99.90;;;;;;4976710;28;19926;-65
2022/11/08 08:12:44;;;;;;;;;;;11.20;99.90;;;;;;4961142;28;20344;-65
2022/11/08 08:15:12;;;;;;;;;;;11.20;99.90;;;;;;4958477;28;19930;-66
2022/11/08 08:17:39;;;;;;;;;;;11.30;99.90;;;;;;4982162;28;19933;-66
2022/11/08 08:20:06;;;;;;;;;;;11.30;99.90;;;;;;4968775;28;19942;-67
2022/11/08 08:22:33;;;;;;;;;;;11.30;99.90;;;;;;4964265;28;19926;-66
2022/11/08 08:25:00;;;;;;;;;;;11.40;99.90;;;;;;4980086;28;19977;-67
2022/11/08 08:27:27;;;;;;;;;;;11.40;99.90;;;;;;4962722;28;19930;-67
2022/11/08 08:29:54;;;;;;;;;;;11.50;99.90;;;;;;4972025;28;19927;-66
2022/11/08 08:32:23;;;;;;;;;;;11.60;99.90;;;;;;4975895;28;20505;-66
2022/11/08 08:34:49;;;;;;;;;;;11.70;99.90;;;;;;4972642;28;19926;-65
2022/11/08 08:37:16;;;;;;;;;;;11.80;99.90;;;;;;4972542;28;20053;-66
2022/11/08 08:39:43;;;;;;;;;;;12.00;99.90;;;;;;4969050;28;19926;-67
2022/11/08 08:42:10;;;;;;;;;;;12.20;99.90;;;;;;4970016;28;19926;-66
2022/11/08 08:44:36;;;;;;;;;;;12.40;99.90;;;;;;4988681;28;19933;-65
2022/11/08 08:47:03;;;;;;;;;;;12.50;99.90;;;;;;4969072;28;19934;-66
2022/11/08 08:49:31;;;;;;;;;;;12.60;99.90;;;;;;4970040;28;19933;-66
2022/11/08 08:51:58;;;;;;;;;;;12.70;99.90;;;;;;4972348;28;19930;-67
2022/11/08 08:54:25;;;;;;;;;;;12.80;99.90;;;;;;4971347;28;19926;-66
2022/11/08 08:56:52;;;;;;;;;;;12.80;99.90;;;;;;4987006;28;19934;-66
2022/11/08 08:59:19;;;;;;;;;;;12.90;99.90;;;;;;4972351;28;20016;-66
2022/11/08 09:01:46;;;;;;;;;;;12.90;99.90;;;;;;4971125;28;19927;-66
2022/11/08 09:04:12;;;;;;;;;;;13.00;99.90;;;;;;4969820;28;19926;-66
2022/11/08 09:06:41;;;;;;;;;;;13.10;99.90;;;;;;4969669;28;19930;-66
2022/11/08 09:09:07;;;;;;;;;;;13.20;99.90;;;;;;4972232;28;19933;-66
2022/11/08 09:11:34;;;;;;;;;;;13.20;99.90;;;;;;4964454;28;19934;-68
2022/11/08 09:14:01;;;;;;;;;;;13.30;99.90;;;;;;4971534;28;19926;-67
2022/11/08 09:16:28;;;;;;;;;;;13.50;99.90;;;;;;4965551;28;20013;-67
2022/11/08 09:18:55;;;;;;;;;;;13.70;99.90;;;;;;4967231;28;20036;-66
2022/11/08 09:21:21;;;;;;;;;;;13.90;99.90;;;;;;4968437;28;20301;-68
2022/11/08 09:23:50;;;;;;;;;;;14.10;99.90;;;;;;4969029;28;19934;-66
2022/11/08 09:26:17;;;;;;;;;;;14.30;99.90;;;;;;4974288;28;20282;-67
2022/11/08 09:28:43;;;;;;;;;;;14.40;99.90;;;;;;4965337;28;19926;-67
2022/11/08 09:31:11;;;;;;;;;;;14.60;99.90;;;;;;4985329;28;20414;-66
2022/11/08 09:33:39;;;;;;;;;;;14.70;99.90;;;;;;4968664;28;19926;-67
2022/11/08 09:36:07;;;;;;;;;;;14.90;99.90;;;;;;4975261;28;19930;-66
2022/11/08 09:38:34;;;;;;;;;;;15.00;99.90;;;;;;4971658;28;19926;-66
2022/11/08 09:41:17;;;;;;;;;;;15.10;99.90;;;;;;4963108;28;19976;-66
2022/11/08 09:43:52;;;;;;;;;;;15.10;99.90;;;;;;4987773;28;19981;-66
2022/11/08 09:46:28;;;;;;;;;;;15.10;99.90;;;;;;4972802;28;19926;-67
2022/11/08 09:48:56;;;;;;;;;;;15.10;99.90;;;;;;4981497;28;19934;-66
2022/11/08 09:51:24;;;;;;;;;;;15.20;99.90;;;;;;4972605;28;19984;-66
2022/11/08 09:53:52;;;;;;;;;;;15.30;99.90;;;;;;4971768;28;20371;-67
2022/11/08 09:56:23;;;;;;;;;;;15.50;99.90;;;;;;4966365;28;20282;-64
2022/11/08 09:58:53;;;;;;;;;;;15.60;99.90;;;;;;4964884;28;19926;-67
2022/11/08 10:01:20;;;;;;;;;;;15.60;99.90;;;;;;4965448;28;19933;-67
2022/11/08 10:03:47;;;;;;;;;;;15.70;99.90;;;;;;4972397;28;19935;-66
2022/11/08 10:06:26;;;;;;;;;;;15.90;99.90;;;;;;4978126;28;20017;-67
2022/11/08 10:08:58;;;;;;;;;;;16.00;99.90;;;;;;4972026;28;19926;-67
2022/11/08 10:11:32;;;;;;;;;;;16.20;99.90;;;;;;4960780;28;19926;-66
2022/11/08 10:14:06;;;;;;;;;;;16.40;99.90;;;;;;4970122;28;19926;-67
2022/11/08 10:16:36;;;;;;;;;;;16.60;99.90;;;;;;4961530;28;19933;-66
2022/11/08 10:19:11;;;;;;;;;;;16.60;99.90;;;;;;4961394;28;19926;-67
2022/11/08 10:21:49;;;;;;;;;;;16.90;99.90;;;;;;4968041;28;19926;-67
2022/11/08 10:24:19;;;;;;;;;;;17.50;99.90;;;;;;4964244;28;19926;-64
2022/11/08 10:26:47;;;;;;;;;;;18.30;99.90;;;;;;4964297;28;20381;-67
2022/11/08 10:29:16;;;;;;;;;;;19.10;99.90;;;;;;4961760;28;19930;-66
2022/11/08 10:31:43;;;;;;;;;;;18.60;99.90;;;;;;4970438;28;19934;-67
2022/11/08 10:34:12;;;;;;;;;;;18.20;99.90;;;;;;4975647;28;19926;-68
2022/11/08 10:36:40;;;;;;;;;;;18.30;99.90;;;;;;4962832;28;19927;-67
2022/11/08 10:39:12;;;;;;;;;;;18.50;99.90;;;;;;4966476;28;20340;-67
2022/11/08 10:41:41;;;;;;;;;;;18.80;99.90;;;;;;4968119;28;19926;-67
2022/11/08 10:44:12;;;;;;;;;;;19.20;99.90;;;;;;4963394;28;19931;-66
2022/11/08 10:46:41;;;;;;;;;;;19.70;99.90;;;;;;4966902;28;19933;-64
2022/11/08 10:49:11;;;;;;;;;;;21.60;99.90;;;;;;4964082;28;19927;-67
2022/11/08 10:51:38;;;;;;;;;;;23.10;99.90;;;;;;4967961;28;19926;-67
2022/11/08 10:54:05;;;;;;;;;;;24.40;99.90;;;;;;4962382;28;19926;-67
2022/11/08 10:56:52;;;;;;;;;;;25.80;99.90;;;;;;4966105;28;19926;-68
2022/11/08 10:59:37;;;;;;;;;;;26.60;99.90;;;;;;4960095;28;19927;-68
2022/11/08 11:02:16;;;;;;;;;;;24.90;99.90;;;;;;4964541;28;19930;-68
2022/11/08 11:04:42;;;;;;;;;;;25.10;99.90;;;;;;4966287;28;19930;-67
2022/11/08 11:07:25;;;;;;;;;;;24.80;99.90;;;;;;4975632;28;19930;-67
2022/11/08 11:09:52;;;;;;;;;;;24.60;99.90;;;;;;4966659;28;19930;-66
2022/11/08 11:12:18;;;;;;;;;;;23.50;99.90;;;;;;4964730;28;19926;-67
2022/11/08 11:14:55;;;;;;;;;;;22.90;99.90;;;;;;4969106;28;19933;-67
2022/11/08 11:17:23;;;;;;;;;;;21.60;99.90;;;;;;4964766;28;19926;-68
2022/11/08 11:19:53;;;;;;;;;;;20.80;99.90;;;;;;4958792;28;19926;-68
2022/11/08 11:22:24;;;;;;;;;;;21.30;99.90;;;;;;4964244;28;19926;-67
2022/11/08 11:24:53;;;;;;;;;;;23.50;99.90;;;;;;4965391;28;19981;-67
2022/11/08 11:27:21;;;;;;;;;;;25.40;99.90;;;;;;4966870;28;19934;-68
2022/11/08 11:29:49;;;;;;;;;;;25.90;99.90;;;;;;4968142;28;19933;-67
2022/11/08 11:32:21;;;;;;;;;;;24.70;99.90;;;;;;4973879;28;19926;-67
2022/11/08 11:34:50;;;;;;;;;;;23.70;99.90;;;;;;4967661;28;19926;-69
2022/11/08 11:37:19;;;;;;;;;;;23.40;99.90;;;;;;4969633;28;19961;-68
2022/11/08 11:39:50;;;;;;;;;;;23.50;99.90;;;;;;4967627;28;20044;-67
2022/11/08 11:42:20;;;;;;;;;;;25.20;99.90;;;;;;4975916;28;19933;-69
2022/11/08 11:44:51;;;;;;;;;;;24.50;99.90;;;;;;4966140;28;19933;-69
2022/11/08 11:47:25;;;;;;;;;;;24.90;99.90;;;;;;4983990;28;19930;-67
2022/11/08 11:49:54;;;;;;;;;;;24.90;99.90;;;;;;4985218;28;19938;-67
2022/11/08 11:52:21;;;;;;;;;;;23.60;99.90;;;;;;4969179;28;19981;-67
2022/11/08 11:54:48;;;;;;;;;;;23.00;99.90;;;;;;4984469;28;19934;-67
2022/11/08 11:57:20;;;;;;;;;;;22.40;99.90;;;;;;4968076;28;19927;-67
2022/11/08 11:59:55;;;;;;;;;;;23.10;99.90;;;;;;4963638;28;19930;-66
2022/11/08 12:02:36;;;;;;;;;;;23.50;99.90;;;;;;4963724;28;19934;-67
2022/11/08 12:05:19;;;;;;;;;;;23.90;99.90;;;;;;4962635;28;19930;-66
2022/11/08 12:07:49;;;;;;;;;;;24.90;99.90;;;;;;4969692;28;19981;-66
2022/11/08 12:10:24;;;;;;;;;;;24.10;99.90;;;;;;4972130;28;19926;-68
2022/11/08 12:12:58;;;;;;;;;;;24.60;99.90;;;;;;4980933;28;19926;-68
2022/11/08 12:15:28;;;;;;;;;;;26.70;99.90;;;;;;4961119;28;19931;-67
2022/11/08 12:18:02;;;;;;;;;;;27.40;99.90;;;;;;4975275;28;19934;-68
2022/11/08 12:20:34;;;;;;;;;;;25.30;99.90;;;;;;4983743;28;19926;-67
2022/11/08 12:23:16;;;;;;;;;;;24.70;99.90;;;;;;4969425;28;20017;-69
2022/11/08 12:25:45;;;;;;;;;;;24.50;99.90;;;;;;4962470;28;19930;-67
2022/11/08 12:28:19;;;;;;;;;;;22.70;99.90;;;;;;4982651;28;19941;-67
2022/11/08 12:30:50;;;;;;;;;;;21.90;99.90;;;;;;4964724;28;19927;-66
2022/11/08 12:33:24;;;;;;;;;;;21.50;99.90;;;;;;4960873;28;19926;-66
2022/11/08 12:35:59;;;;;;;;;;;21.40;99.90;;;;;;4973875;28;19926;-66
2022/11/08 12:38:29;;;;;;;;;;;21.50;99.90;;;;;;4966657;28;19926;-64
2022/11/08 12:40:58;;;;;;;;;;;20.80;99.90;;;;;;4973218;28;19926;-66
2022/11/08 12:43:40;;;;;;;;;;;20.30;99.90;;;;;;4962326;28;19934;-66
2022/11/08 12:46:09;;;;;;;;;;;20.40;99.90;;;;;;4977089;28;19931;-67
2022/11/08 12:48:47;;;;;;;;;;;20.10;99.90;;;;;;4970365;28;19927;-68
2022/11/08 12:51:19;;;;;;;;;;;19.70;99.90;;;;;;4967663;28;20021;-67
2022/11/08 12:53:53;;;;;;;;;;;20.80;99.90;;;;;;4966317;28;19926;-67
2022/11/08 12:56:22;;;;;;;;;;;22.60;99.90;;;;;;4963589;28;19981;-67
2022/11/08 12:58:49;;;;;;;;;;;23.90;99.90;;;;;;4966121;28;19926;-68
2022/11/08 13:01:17;;;;;;;;;;;24.50;99.90;;;;;;4976072;28;20389;-68
2022/11/08 13:03:51;;;;;;;;;;;24.20;99.90;;;;;;4971257;28;19938;-68
2022/11/08 13:06:23;;;;;;;;;;;23.90;99.90;;;;;;4974101;28;19980;-68
2022/11/08 13:08:55;;;;;;;;;;;23.80;99.90;;;;;;4987723;28;19926;-68
2022/11/08 13:11:25;;;;;;;;;;;23.10;99.90;;;;;;4974604;28;20006;-69
2022/11/08 13:13:53;;;;;;;;;;;21.60;99.90;;;;;;4986547;28;20397;-69
2022/11/08 13:16:21;;;;;;;;;;;21.10;99.90;;;;;;4965291;28;19945;-69
2022/11/08 13:18:50;;;;;;;;;;;20.50;99.90;;;;;;4970816;28;19934;-68
2022/11/08 13:21:37;;;;;;;;;;;20.70;99.90;;;;;;4967102;28;19942;-68
2022/11/08 13:24:22;;;;;;;;;;;20.80;99.90;;;;;;4974500;28;20293;-68
2022/11/08 13:26:49;;;;;;;;;;;20.40;99.90;;;;;;4968366;28;19973;-69
2022/11/08 13:29:24;;;;;;;;;;;19.40;99.90;;;;;;4965108;28;20313;-67
2022/11/08 13:31:53;;;;;;;;;;;19.30;99.90;;;;;;4967516;28;19927;-67
2022/11/08 13:34:28;;;;;;;;;;;19.00;99.90;;;;;;4964185;28;19926;-67
2022/11/08 13:37:19;;;;;;;;;;;18.80;99.90;;;;;;4966141;28;20384;-67
2022/11/08 13:39:59;;;;;;;;;;;18.70;99.90;;;;;;4949303;28;19931;-67
2022/11/08 13:42:40;;;;;;;;;;;18.70;99.90;;;;;;4972697;28;19930;-68
2022/11/08 13:45:13;;;;;;;;;;;18.70;99.90;;;;;;4977802;28;19930;-66
2022/11/08 13:47:52;;;;;;;;;;;18.80;99.90;;;;;;4967568;28;19969;-66
2022/11/08 13:50:37;;;;;;;;;;;19.00;99.90;;;;;;4966404;28;19930;-67
2022/11/08 13:53:08;;;;;;;;;;;19.30;99.90;;;;;;4971917;28;20417;-66
2022/11/08 13:55:45;;;;;;;;;;;19.20;99.90;;;;;;4972187;28;19933;-65
2022/11/08 13:58:30;;;;;;;;;;;19.10;99.90;;;;;;4971571;28;19997;-67
2022/11/08 14:00:57;;;;;;;;;;;18.90;99.90;;;;;;4968183;28;19926;-67
2022/11/08 14:03:43;;;;;;;;;;;18.60;99.90;;;;;;4970099;28;19926;-67
2022/11/08 14:06:15;;;;;;;;;;;18.40;99.90;;;;;;4976630;28;19934;-66
2022/11/08 14:08:46;;;;;;;;;;;18.20;99.90;;;;;;4981413;28;19926;-64
2022/11/08 14:11:31;;;;;;;;;;;18.10;99.90;;;;;;4969195;28;19926;-67
2022/11/08 14:14:19;;;;;;;;;;;18.10;99.90;;;;;;4965148;28;19930;-68
2022/11/08 14:16:50;;;;;;;;;;;18.00;99.90;;;;;;4982493;28;19937;-68
2022/11/08 14:19:21;;;;;;;;;;;17.90;99.90;;;;;;4970613;28;19956;-75
2022/11/08 14:21:52;;;;;;;;;;;18.00;99.90;;;;;;4985411;28;19938;-68
2022/11/08 14:24:23;;;;;;;;;;;17.90;99.90;;;;;;4965847;28;19926;-67
2022/11/08 14:26:50;;;;;;;;;;;17.90;99.90;;;;;;4975223;28;19926;-67
2022/11/08 14:29:17;;;;;;;;;;;17.90;99.90;;;;;;4968655;28;20422;-66
2022/11/08 14:31:44;;;;;;;;;;;17.80;99.90;;;;;;4981509;28;19969;-66
2022/11/08 14:34:26;;;;;;;;;;;17.70;99.90;;;;;;4978991;28;19934;-67
2022/11/08 14:36:53;;;;;;;;;;;17.60;99.90;;;;;;4958642;28;20361;-67
2022/11/08 14:39:25;;;;;;;;;;;17.60;99.90;;;;;;4965473;28;19977;-67
2022/11/08 14:41:52;;;;;;;;;;;17.50;99.90;;;;;;4957841;28;19930;-69
2022/11/08 14:44:19;;;;;;;;;;;17.50;99.90;;;;;;4961156;28;19926;-67
2022/11/08 14:46:46;;;;;;;;;;;17.60;99.90;;;;;;4965636;28;20429;-67
2022/11/08 14:49:19;;;;;;;;;;;17.70;99.90;;;;;;4968578;28;19930;-68
2022/11/08 14:51:46;;;;;;;;;;;17.80;99.90;;;;;;4968953;28;19981;-67
2022/11/08 14:54:16;;;;;;;;;;;17.80;99.90;;;;;;4960905;28;19933;-67
2022/11/08 14:56:45;;;;;;;;;;;17.80;99.90;;;;;;4970234;28;19930;-68
2022/11/08 14:59:13;;;;;;;;;;;17.80;99.90;;;;;;4976593;28;19930;-67
2022/11/08 15:01:40;;;;;;;;;;;17.80;99.90;;;;;;4969408;28;19966;-68
2022/11/08 15:04:13;;;;;;;;;;;17.70;99.90;;;;;;4969792;28;19930;-68
2022/11/08 15:06:40;;;;;;;;;;;17.60;99.90;;;;;;4967838;28;20038;-66
2022/11/08 15:09:08;;;;;;;;;;;17.50;99.90;;;;;;4957967;28;19937;-69
2022/11/08 15:11:36;;;;;;;;;;;17.50;99.90;;;;;;4987008;28;19926;-70
2022/11/08 15:14:05;;;;;;;;;;;17.40;99.90;;;;;;4956600;28;19930;-66
2022/11/08 15:16:42;;;;;;;;;;;17.30;99.90;;;;;;4977499;28;19926;-68
2022/11/08 15:19:20;;;;;;;;;;;17.30;99.90;;;;;;4973183;28;19930;-67
2022/11/08 15:21:47;;;;;;;;;;;17.20;99.90;;;;;;4966854;28;19927;-66
2022/11/08 15:24:15;;;;;;;;;;;17.20;99.90;;;;;;4970734;28;20032;-66
2022/11/08 15:26:57;;;;;;;;;;;17.20;99.90;;;;;;4963898;28;19927;-66
2022/11/08 15:29:25;;;;;;;;;;;17.20;99.90;;;;;;4969607;28;19926;-67
2022/11/08 15:31:53;;;;;;;;;;;17.10;99.90;;;;;;4966184;28;19930;-67
2022/11/08 15:34:20;;;;;;;;;;;17.10;99.90;;;;;;4967037;28;19926;-67
2022/11/08 15:36:47;;;;;;;;;;;17.10;99.90;;;;;;4961627;28;19930;-67
2022/11/08 15:39:20;;;;;;;;;;;17.20;99.90;;;;;;4965587;28;19926;-66
2022/11/08 15:41:58;;;;;;;;;;;17.10;99.90;;;;;;4971578;28;19929;-67
2022/11/08 15:44:26;;;;;;;;;;;17.10;99.90;;;;;;4974739;28;19926;-66
2022/11/08 15:46:53;;;;;;;;;;;17.00;99.90;;;;;;4964010;28;19930;-67
2022/11/08 15:49:21;;;;;;;;;;;17.00;99.90;;;;;;4971475;28;20393;-66
2022/11/08 15:51:49;;;;;;;;;;;17.00;99.90;;;;;;4969911;28;19929;-67
2022/11/08 15:54:16;;;;;;;;;;;16.90;99.90;;;;;;4971825;28;19930;-66
2022/11/08 15:56:43;;;;;;;;;;;16.90;99.90;;;;;;4966659;28;19926;-66
2022/11/08 15:59:11;;;;;;;;;;;16.90;99.90;;;;;;4965333;28;20006;-65
2022/11/08 16:01:42;;;;;;;;;;;16.90;99.90;;;;;;4967443;28;19930;-65
2022/11/08 16:04:10;;;;;;;;;;;16.90;99.90;;;;;;4965496;28;20400;-67
2022/11/08 16:06:37;;;;;;;;;;;16.90;99.90;;;;;;4974907;28;19930;-66
2022/11/08 16:09:04;;;;;;;;;;;16.80;99.90;;;;;;4961101;28;19926;-66
2022/11/08 16:11:31;;;;;;;;;;;16.80;99.90;;;;;;4984802;28;19926;-67
2022/11/08 16:13:58;;;;;;;;;;;16.80;99.90;;;;;;4978558;28;20365;-66
2022/11/08 16:16:25;;;;;;;;;;;16.70;99.90;;;;;;4972066;28;19930;-66
2022/11/08 16:18:53;;;;;;;;;;;16.70;99.90;;;;;;4963466;28;19927;-66
2022/11/08 16:21:20;;;;;;;;;;;16.70;99.90;;;;;;4965873;28;19926;-67
2022/11/08 16:23:47;;;;;;;;;;;16.70;99.90;;;;;;4962058;28;20357;-67
2022/11/08 16:26:15;;;;;;;;;;;16.60;99.90;;;;;;4965675;28;19933;-67
2022/11/08 16:28:42;;;;;;;;;;;16.60;99.90;;;;;;4965357;28;20405;-66
2022/11/08 16:31:12;;;;;;;;;;;16.60;99.90;;;;;;4981015;28;19926;-67
2022/11/08 16:33:39;;;;;;;;;;;16.60;99.90;;;;;;4966871;28;19988;-67
2022/11/08 16:36:12;;;;;;;;;;;16.60;99.90;;;;;;4959943;28;19926;-66
2022/11/08 16:38:39;;;;;;;;;;;16.60;99.90;;;;;;4967924;28;19930;-67
2022/11/08 16:41:05;;;;;;;;;;;16.70;99.90;;;;;;4970103;28;19934;-67
2022/11/08 16:43:33;;;;;;;;;;;16.60;99.90;;;;;;4968028;28;20500;-67
2022/11/08 16:46:03;;;;;;;;;;;16.70;99.90;;;;;;4962071;28;19930;-67
2022/11/08 16:48:30;;;;;;;;;;;16.70;99.90;;;;;;4967600;28;19930;-67
2022/11/08 16:50:58;;;;;;;;;;;16.70;99.90;;;;;;4970762;28;20013;-67
2022/11/08 16:53:28;;;;;;;;;;;16.70;99.90;;;;;;4973888;28;19926;-66
2022/11/08 16:55:55;;;;;;;;;;;16.60;99.90;;;;;;4994274;23;19934;-68
2022/11/08 16:58:22;;;;;;;;;;;16.70;99.90;;;;;;4958891;28;19926;-68
2022/11/08 17:00:48;;;;;;;;;;;16.80;99.90;;;;;;4962001;28;19926;-69
2022/11/08 17:03:18;;;;;;;;;;;16.80;99.90;;;;;;4967439;28;19926;-69
2022/11/08 17:05:44;;;;;;;;;;;16.80;99.90;;;;;;4961324;28;20417;-68
2022/11/08 17:08:11;;;;;;;;;;;16.80;99.90;;;;;;4956081;28;20316;-69
2022/11/08 17:10:40;;;;;;;;;;;16.80;99.90;;;;;;4960755;28;19927;-67
2022/11/08 17:13:07;;;;;;;;;;;16.80;99.90;;;;;;4960310;28;19926;-67
2022/11/08 17:15:34;;;;;;;;;;;16.70;99.90;;;;;;4965563;28;19927;-70
2022/11/08 17:18:02;;;;;;;;;;;16.70;99.90;;;;;;4949230;28;19926;-70
2022/11/08 17:20:28;;;;;;;;;;;16.70;99.90;;;;;;4963796;28;19933;-70
2022/11/08 17:22:55;;;;;;;;;;;16.70;99.90;;;;;;4962549;28;19934;-70
2022/11/08 17:25:23;;;;;;;;;;;16.70;99.90;;;;;;4961449;28;19926;-70
2022/11/08 17:27:52;;;;;;;;;;;16.70;99.90;;;;;;4965172;28;19933;-69
2022/11/08 17:30:19;;;;;;;;;;;16.70;99.90;;;;;;4956332;28;20001;-70
2022/11/08 17:32:46;;;;;;;;;;;16.60;99.90;;;;;;4963482;28;19927;-70
2022/11/08 17:35:13;;;;;;;;;;;16.60;99.90;;;;;;4956169;28;19933;-70
2022/11/08 17:37:40;;;;;;;;;;;16.70;99.90;;;;;;4962639;28;20013;-68
2022/11/08 17:40:08;;;;;;;;;;;16.60;99.90;;;;;;4958043;28;19926;-69
2022/11/08 17:42:35;;;;;;;;;;;16.60;99.90;;;;;;4962393;28;19926;-69
2022/11/08 17:45:03;;;;;;;;;;;16.50;99.90;;;;;;4962978;28;19985;-69
2022/11/08 17:47:30;;;;;;;;;;;16.50;99.90;;;;;;4957228;28;20294;-69
2022/11/08 17:49:57;;;;;;;;;;;16.50;99.90;;;;;;4949838;28;19933;-69
2022/11/08 17:52:24;;;;;;;;;;;16.50;99.90;;;;;;4945030;29;19930;-70
2022/11/08 17:54:51;;;;;;;;;;;16.50;99.90;;;;;;4963296;28;19933;-70
2022/11/08 17:57:17;;;;;;;;;;;16.50;99.90;;;;;;4966002;28;19926;-70
2022/11/08 17:59:46;;;;;;;;;;;16.40;99.90;;;;;;4963883;28;19926;-69
2022/11/08 18:02:15;;;;;;;;;;;16.50;99.90;;;;;;4960409;28;20382;-71
2022/11/08 18:04:42;;;;;;;;;;;16.50;99.90;;;;;;4960345;28;19977;-70
2022/11/08 18:07:08;;;;;;;;;;;16.50;99.90;;;;;;4958506;28;19937;-70
2022/11/08 18:09:35;;;;;;;;;;;16.50;99.90;;;;;;4961593;28;19927;-68
2022/11/08 18:12:02;;;;;;;;;;;16.50;99.90;;;;;;4955357;28;19937;-70
2022/11/08 18:14:29;;;;;;;;;;;16.40;99.90;;;;;;4961501;28;19926;-70
2022/11/08 18:16:56;;;;;;;;;;;16.40;99.90;;;;;;4952042;28;19926;-70
2022/11/08 18:19:26;;;;;;;;;;;16.40;99.90;;;;;;4958747;28;20083;-71
2022/11/08 18:21:53;;;;;;;;;;;16.20;99.90;;;;;;4948343;28;19927;-70
2022/11/08 18:24:20;;;;;;;;;;;16.30;99.90;;;;;;4962445;28;19926;-69
2022/11/08 18:26:47;;;;;;;;;;;16.20;99.90;;;;;;4950409;28;19926;-69
2022/11/08 18:29:13;;;;;;;;;;;16.20;99.90;;;;;;4948301;28;19934;-71
2022/11/08 18:31:40;;;;;;;;;;;16.20;99.90;;;;;;4953948;28;19933;-70
2022/11/08 18:34:07;;;;;;;;;;;16.30;99.90;;;;;;4950506;28;20390;-70
2022/11/08 18:36:35;;;;;;;;;;;16.40;99.90;;;;;;4957724;28;19926;-70
2022/11/08 18:39:02;;;;;;;;;;;16.40;99.90;;;;;;4956749;28;20476;-70
2022/11/08 18:41:30;;;;;;;;;;;16.30;99.90;;;;;;4958766;28;19934;-70
2022/11/08 18:43:57;;;;;;;;;;;16.30;99.90;;;;;;4955845;28;19930;-71
2022/11/08 18:46:25;;;;;;;;;;;16.30;99.90;;;;;;4951518;28;19927;-72